sensor_id;sensor_type;location;lat;lon;timestamp;P1;durP1;ratioP1;P2;durP2;ratioP2
16634;SDS011;8431;52.458;9.998;2023-03-15T00:02:22;7.40;;;1.80;;
16634;SDS011;8431;52.458;9.998;2023-03-15T00:04:51;9.73;;;1.75;;
16634;SDS011;8431;52.458;9.998;2023-03-15T00:07:19;9.93;;;1.75;;
16634;SDS011;8431;52.458;9.998;2023-03-15T00:09:50;6.85;;;2.08;;
16634;SDS011;8431;52.458;9.998;2023-03-15T00:12:17;4.72;;;1.40;;
16634;SDS011;8431;52.458;9.998;2023-03-15T00:14:44;8.02;;;2.00;;
16634;SDS011;8431;52.458;9.998;2023-03-15T00:17:11;10.10;;;1.92;;
16634;SDS011;8431;52.458;9.998;2023-03-15T00:19:38;14.30;;;2.60;;
16634;SDS011;8431;52.458;9.998;2023-03-15T00:22:07;9.65;;;1.75;;
16634;SDS011;8431;52.458;9.998;2023-03-15T00:24:34;6.50;;;1.70;;
16634;SDS011;8431;52.458;9.998;2023-03-15T00:27:01;5.30;;;2.15;;
16634;SDS011;8431;52.458;9.998;2023-03-15T00:29:30;4.65;;;2.20;;
16634;SDS011;8431;52.458;9.998;2023-03-15T00:31:57;8.95;;;1.92;;
16634;SDS011;8431;52.458;9.998;2023-03-15T00:34:24;5.95;;;2.22;;
16634;SDS011;8431;52.458;9.998;2023-03-15T00:36:51;7.65;;;1.40;;
16634;SDS011;8431;52.458;9.998;2023-03-15T00:39:20;4.28;;;1.92;;
16634;SDS011;8431;52.458;9.998;2023-03-15T00:41:49;6.00;;;1.40;;
16634;SDS011;8431;52.458;9.998;2023-03-15T00:44:21;6.03;;;1.67;;
16634;SDS011;8431;52.458;9.998;2023-03-15T00:46:48;5.32;;;1.67;;
16634;SDS011;8431;52.458;9.998;2023-03-15T00:49:15;9.50;;;1.80;;
16634;SDS011;8431;52.458;9.998;2023-03-15T00:51:42;5.97;;;1.70;;
16634;SDS011;8431;52.458;9.998;2023-03-15T00:54:09;4.22;;;1.90;;
16634;SDS011;8431;52.458;9.998;2023-03-15T00:56:39;3.97;;;1.40;;
16634;SDS011;8431;52.458;9.998;2023-03-15T00:59:06;4.43;;;1.73;;
16634;SDS011;8431;52.458;9.998;2023-03-15T01:01:33;9.35;;;1.88;;
16634;SDS011;8431;52.458;9.998;2023-03-15T01:04:00;8.45;;;1.83;;
16634;SDS011;8431;52.458;9.998;2023-03-15T01:06:30;11.18;;;1.83;;
16634;SDS011;8431;52.458;9.998;2023-03-15T01:08:57;7.07;;;2.05;;
16634;SDS011;8431;52.458;9.998;2023-03-15T01:11:26;8.00;;;1.77;;
16634;SDS011;8431;52.458;9.998;2023-03-15T01:13:55;5.63;;;1.63;;
16634;SDS011;8431;52.458;9.998;2023-03-15T01:16:23;8.93;;;2.15;;
16634;SDS011;8431;52.458;9.998;2023-03-15T01:18:51;7.95;;;1.52;;
16634;SDS011;8431;52.458;9.998;2023-03-15T01:21:19;6.38;;;1.92;;
16634;SDS011;8431;52.458;9.998;2023-03-15T01:23:46;8.15;;;1.85;;
16634;SDS011;8431;52.458;9.998;2023-03-15T01:26:14;5.95;;;1.65;;
16634;SDS011;8431;52.458;9.998;2023-03-15T01:28:42;5.70;;;1.45;;
16634;SDS011;8431;52.458;9.998;2023-03-15T01:31:11;6.95;;;1.77;;
16634;SDS011;8431;52.458;9.998;2023-03-15T01:33:42;6.55;;;1.40;;
16634;SDS011;8431;52.458;9.998;2023-03-15T01:36:09;5.63;;;1.23;;
16634;SDS011;8431;52.458;9.998;2023-03-15T01:38:37;5.85;;;1.60;;
16634;SDS011;8431;52.458;9.998;2023-03-15T01:41:04;7.65;;;2.08;;
16634;SDS011;8431;52.458;9.998;2023-03-15T01:43:31;9.07;;;1.80;;
16634;SDS011;8431;52.458;9.998;2023-03-15T01:46:03;6.28;;;1.65;;
16634;SDS011;8431;52.458;9.998;2023-03-15T01:48:38;7.80;;;2.08;;
16634;SDS011;8431;52.458;9.998;2023-03-15T01:51:10;9.15;;;1.90;;
16634;SDS011;8431;52.458;9.998;2023-03-15T01:53:42;8.88;;;2.08;;
16634;SDS011;8431;52.458;9.998;2023-03-15T01:56:14;9.60;;;1.63;;
16634;SDS011;8431;52.458;9.998;2023-03-15T01:58:41;4.78;;;1.10;;
16634;SDS011;8431;52.458;9.998;2023-03-15T02:01:10;8.55;;;1.60;;
16634;SDS011;8431;52.458;9.998;2023-03-15T02:03:40;6.15;;;1.92;;
16634;SDS011;8431;52.458;9.998;2023-03-15T02:06:12;4.47;;;1.80;;
16634;SDS011;8431;52.458;9.998;2023-03-15T02:08:42;8.57;;;1.70;;
16634;SDS011;8431;52.458;9.998;2023-03-15T02:11:15;3.38;;;1.52;;
16634;SDS011;8431;52.458;9.998;2023-03-15T02:13:44;6.13;;;2.25;;
16634;SDS011;8431;52.458;9.998;2023-03-15T02:16:13;5.88;;;1.70;;
16634;SDS011;8431;52.458;9.998;2023-03-15T02:18:42;5.40;;;1.55;;
16634;SDS011;8431;52.458;9.998;2023-03-15T02:21:13;5.45;;;1.50;;
16634;SDS011;8431;52.458;9.998;2023-03-15T02:23:48;3.65;;;1.40;;
16634;SDS011;8431;52.458;9.998;2023-03-15T02:26:23;5.28;;;1.20;;
16634;SDS011;8431;52.458;9.998;2023-03-15T02:28:56;7.18;;;1.80;;
16634;SDS011;8431;52.458;9.998;2023-03-15T02:31:23;7.85;;;2.17;;
16634;SDS011;8431;52.458;9.998;2023-03-15T02:33:51;3.47;;;1.25;;
16634;SDS011;8431;52.458;9.998;2023-03-15T02:36:20;4.97;;;1.63;;
16634;SDS011;8431;52.458;9.998;2023-03-15T02:38:50;5.07;;;1.58;;
16634;SDS011;8431;52.458;9.998;2023-03-15T02:41:19;8.07;;;1.70;;
16634;SDS011;8431;52.458;9.998;2023-03-15T02:43:48;4.93;;;1.63;;
16634;SDS011;8431;52.458;9.998;2023-03-15T02:46:18;9.65;;;1.85;;
16634;SDS011;8431;52.458;9.998;2023-03-15T02:48:46;6.50;;;1.52;;
16634;SDS011;8431;52.458;9.998;2023-03-15T02:51:16;7.35;;;1.52;;
16634;SDS011;8431;52.458;9.998;2023-03-15T02:53:45;4.03;;;1.50;;
16634;SDS011;8431;52.458;9.998;2023-03-15T02:56:13;8.00;;;1.65;;
16634;SDS011;8431;52.458;9.998;2023-03-15T02:58:41;6.53;;;1.98;;
16634;SDS011;8431;52.458;9.998;2023-03-15T03:01:10;11.10;;;2.10;;
16634;SDS011;8431;52.458;9.998;2023-03-15T03:03:40;6.93;;;1.60;;
16634;SDS011;8431;52.458;9.998;2023-03-15T03:06:07;11.77;;;2.13;;
16634;SDS011;8431;52.458;9.998;2023-03-15T03:08:34;4.03;;;1.27;;
16634;SDS011;8431;52.458;9.998;2023-03-15T03:11:02;7.85;;;1.50;;
16634;SDS011;8431;52.458;9.998;2023-03-15T03:13:29;7.35;;;2.15;;
16634;SDS011;8431;52.458;9.998;2023-03-15T03:15:56;6.68;;;1.98;;
16634;SDS011;8431;52.458;9.998;2023-03-15T03:18:23;5.85;;;1.85;;
16634;SDS011;8431;52.458;9.998;2023-03-15T03:20:53;2.53;;;1.85;;
16634;SDS011;8431;52.458;9.998;2023-03-15T03:23:21;2.92;;;1.15;;
16634;SDS011;8431;52.458;9.998;2023-03-15T03:25:50;11.80;;;2.10;;
16634;SDS011;8431;52.458;9.998;2023-03-15T03:28:18;8.13;;;1.63;;
16634;SDS011;8431;52.458;9.998;2023-03-15T03:30:45;6.43;;;1.60;;
16634;SDS011;8431;52.458;9.998;2023-03-15T03:33:12;3.97;;;1.90;;
16634;SDS011;8431;52.458;9.998;2023-03-15T03:35:39;6.97;;;1.65;;
16634;SDS011;8431;52.458;9.998;2023-03-15T03:38:08;7.65;;;1.70;;
16634;SDS011;8431;52.458;9.998;2023-03-15T03:40:35;6.70;;;1.63;;
16634;SDS011;8431;52.458;9.998;2023-03-15T03:43:03;6.85;;;2.00;;
16634;SDS011;8431;52.458;9.998;2023-03-15T03:45:30;8.70;;;2.08;;
16634;SDS011;8431;52.458;9.998;2023-03-15T03:47:57;6.07;;;3.33;;
16634;SDS011;8431;52.458;9.998;2023-03-15T03:50:24;7.85;;;2.33;;
16634;SDS011;8431;52.458;9.998;2023-03-15T03:52:51;7.93;;;2.40;;
16634;SDS011;8431;52.458;9.998;2023-03-15T03:55:19;4.60;;;2.05;;
16634;SDS011;8431;52.458;9.998;2023-03-15T03:57:49;6.13;;;2.20;;
16634;SDS011;8431;52.458;9.998;2023-03-15T04:00:17;5.82;;;2.00;;
16634;SDS011;8431;52.458;9.998;2023-03-15T04:02:44;3.03;;;1.60;;
16634;SDS011;8431;52.458;9.998;2023-03-15T04:05:11;5.75;;;2.33;;
16634;SDS011;8431;52.458;9.998;2023-03-15T04:07:39;4.93;;;2.22;;
16634;SDS011;8431;52.458;9.998;2023-03-15T04:10:07;12.35;;;2.20;;
16634;SDS011;8431;52.458;9.998;2023-03-15T04:12:40;10.02;;;2.75;;
16634;SDS011;8431;52.458;9.998;2023-03-15T04:15:07;7.70;;;2.80;;
16634;SDS011;8431;52.458;9.998;2023-03-15T04:17:35;4.03;;;2.50;;
16634;SDS011;8431;52.458;9.998;2023-03-15T04:20:03;3.83;;;2.38;;
16634;SDS011;8431;52.458;9.998;2023-03-15T04:22:32;5.13;;;2.63;;
16634;SDS011;8431;52.458;9.998;2023-03-15T04:25:00;6.05;;;2.75;;
16634;SDS011;8431;52.458;9.998;2023-03-15T04:27:27;3.08;;;2.60;;
16634;SDS011;8431;52.458;9.998;2023-03-15T04:29:55;6.32;;;3.42;;
16634;SDS011;8431;52.458;9.998;2023-03-15T04:32:22;4.88;;;2.60;;
16634;SDS011;8431;52.458;9.998;2023-03-15T04:34:49;7.00;;;3.28;;
16634;SDS011;8431;52.458;9.998;2023-03-15T04:37:16;6.25;;;3.53;;
16634;SDS011;8431;52.458;9.998;2023-03-15T04:39:43;6.40;;;3.30;;
16634;SDS011;8431;52.458;9.998;2023-03-15T04:42:10;5.75;;;3.35;;
16634;SDS011;8431;52.458;9.998;2023-03-15T04:44:37;7.15;;;3.22;;
16634;SDS011;8431;52.458;9.998;2023-03-15T04:47:06;7.07;;;3.00;;
16634;SDS011;8431;52.458;9.998;2023-03-15T04:49:33;5.47;;;3.53;;
16634;SDS011;8431;52.458;9.998;2023-03-15T04:52:00;6.72;;;3.08;;
16634;SDS011;8431;52.458;9.998;2023-03-15T04:54:27;5.80;;;3.15;;
16634;SDS011;8431;52.458;9.998;2023-03-15T04:56:54;8.30;;;3.60;;
16634;SDS011;8431;52.458;9.998;2023-03-15T04:59:21;4.25;;;3.30;;
16634;SDS011;8431;52.458;9.998;2023-03-15T05:01:48;6.47;;;3.45;;
16634;SDS011;8431;52.458;9.998;2023-03-15T05:04:16;8.50;;;3.88;;
16634;SDS011;8431;52.458;9.998;2023-03-15T05:06:43;9.25;;;4.10;;
16634;SDS011;8431;52.458;9.998;2023-03-15T05:09:10;6.72;;;3.63;;
16634;SDS011;8431;52.458;9.998;2023-03-15T05:11:42;3.72;;;3.15;;
16634;SDS011;8431;52.458;9.998;2023-03-15T05:14:09;4.25;;;3.15;;
16634;SDS011;8431;52.458;9.998;2023-03-15T05:16:39;8.70;;;3.72;;
16634;SDS011;8431;52.458;9.998;2023-03-15T05:19:07;6.82;;;3.78;;
16634;SDS011;8431;52.458;9.998;2023-03-15T05:21:36;6.25;;;3.45;;
16634;SDS011;8431;52.458;9.998;2023-03-15T05:24:03;5.57;;;3.60;;
16634;SDS011;8431;52.458;9.998;2023-03-15T05:26:31;5.20;;;3.63;;
16634;SDS011;8431;52.458;9.998;2023-03-15T05:28:59;5.50;;;3.40;;
16634;SDS011;8431;52.458;9.998;2023-03-15T05:31:26;6.30;;;3.20;;
16634;SDS011;8431;52.458;9.998;2023-03-15T05:33:53;6.43;;;3.90;;
16634;SDS011;8431;52.458;9.998;2023-03-15T05:36:20;5.95;;;3.60;;
16634;SDS011;8431;52.458;9.998;2023-03-15T05:38:48;5.70;;;3.70;;
16634;SDS011;8431;52.458;9.998;2023-03-15T05:41:15;7.85;;;3.97;;
16634;SDS011;8431;52.458;9.998;2023-03-15T05:43:42;8.07;;;3.42;;
16634;SDS011;8431;52.458;9.998;2023-03-15T05:46:10;5.78;;;4.47;;
16634;SDS011;8431;52.458;9.998;2023-03-15T05:48:37;6.18;;;3.85;;
16634;SDS011;8431;52.458;9.998;2023-03-15T05:51:04;6.10;;;3.88;;
16634;SDS011;8431;52.458;9.998;2023-03-15T05:53:31;5.32;;;3.63;;
16634;SDS011;8431;52.458;9.998;2023-03-15T05:56:00;3.55;;;3.25;;
16634;SDS011;8431;52.458;9.998;2023-03-15T05:58:27;6.80;;;3.65;;
16634;SDS011;8431;52.458;9.998;2023-03-15T06:00:54;7.22;;;4.20;;
16634;SDS011;8431;52.458;9.998;2023-03-15T06:03:21;4.03;;;3.60;;
16634;SDS011;8431;52.458;9.998;2023-03-15T06:05:48;8.95;;;4.30;;
16634;SDS011;8431;52.458;9.998;2023-03-15T06:08:15;7.40;;;4.00;;
16634;SDS011;8431;52.458;9.998;2023-03-15T06:10:42;4.55;;;3.90;;
16634;SDS011;8431;52.458;9.998;2023-03-15T06:13:10;7.85;;;3.97;;
16634;SDS011;8431;52.458;9.998;2023-03-15T06:15:37;4.57;;;3.60;;
16634;SDS011;8431;52.458;9.998;2023-03-15T06:18:04;5.13;;;3.65;;
16634;SDS011;8431;52.458;9.998;2023-03-15T06:20:32;7.20;;;3.70;;
16634;SDS011;8431;52.458;9.998;2023-03-15T06:22:59;4.97;;;3.53;;
16634;SDS011;8431;52.458;9.998;2023-03-15T06:25:26;4.13;;;3.67;;
16634;SDS011;8431;52.458;9.998;2023-03-15T06:27:53;4.80;;;3.63;;
16634;SDS011;8431;52.458;9.998;2023-03-15T06:30:21;6.40;;;4.20;;
16634;SDS011;8431;52.458;9.998;2023-03-15T06:32:50;4.45;;;4.05;;
16634;SDS011;8431;52.458;9.998;2023-03-15T06:35:17;4.82;;;3.40;;
16634;SDS011;8431;52.458;9.998;2023-03-15T06:37:44;6.07;;;4.00;;
16634;SDS011;8431;52.458;9.998;2023-03-15T06:40:11;6.15;;;4.38;;
16634;SDS011;8431;52.458;9.998;2023-03-15T06:42:39;6.75;;;3.72;;
16634;SDS011;8431;52.458;9.998;2023-03-15T06:45:07;3.72;;;3.22;;
16634;SDS011;8431;52.458;9.998;2023-03-15T06:47:36;5.13;;;3.53;;
16634;SDS011;8431;52.458;9.998;2023-03-15T06:50:03;5.57;;;3.58;;
16634;SDS011;8431;52.458;9.998;2023-03-15T06:52:31;9.27;;;4.35;;
16634;SDS011;8431;52.458;9.998;2023-03-15T06:54:59;4.85;;;3.67;;
16634;SDS011;8431;52.458;9.998;2023-03-15T06:57:26;7.88;;;3.75;;
16634;SDS011;8431;52.458;9.998;2023-03-15T06:59:52;8.60;;;3.88;;
16634;SDS011;8431;52.458;9.998;2023-03-15T07:02:19;7.13;;;3.70;;
16634;SDS011;8431;52.458;9.998;2023-03-15T07:04:48;7.15;;;4.03;;
16634;SDS011;8431;52.458;9.998;2023-03-15T07:07:15;4.47;;;3.55;;
16634;SDS011;8431;52.458;9.998;2023-03-15T07:09:42;6.35;;;3.50;;
16634;SDS011;8431;52.458;9.998;2023-03-15T07:12:09;5.70;;;4.00;;
16634;SDS011;8431;52.458;9.998;2023-03-15T07:14:36;7.82;;;4.38;;
16634;SDS011;8431;52.458;9.998;2023-03-15T07:17:03;6.18;;;3.55;;
16634;SDS011;8431;52.458;9.998;2023-03-15T07:19:30;4.97;;;3.28;;
16634;SDS011;8431;52.458;9.998;2023-03-15T07:21:59;6.10;;;3.63;;
16634;SDS011;8431;52.458;9.998;2023-03-15T07:24:26;4.05;;;3.65;;
16634;SDS011;8431;52.458;9.998;2023-03-15T07:26:53;5.55;;;3.67;;
16634;SDS011;8431;52.458;9.998;2023-03-15T07:29:20;5.35;;;3.20;;
16634;SDS011;8431;52.458;9.998;2023-03-15T07:31:48;9.65;;;3.88;;
16634;SDS011;8431;52.458;9.998;2023-03-15T07:34:15;3.83;;;3.42;;
16634;SDS011;8431;52.458;9.998;2023-03-15T07:36:43;6.57;;;3.90;;
16634;SDS011;8431;52.458;9.998;2023-03-15T07:39:11;4.97;;;3.50;;
16634;SDS011;8431;52.458;9.998;2023-03-15T07:41:38;8.85;;;3.75;;
16634;SDS011;8431;52.458;9.998;2023-03-15T07:44:05;5.85;;;3.40;;
16634;SDS011;8431;52.458;9.998;2023-03-15T07:46:32;9.48;;;4.88;;
16634;SDS011;8431;52.458;9.998;2023-03-15T07:49:00;5.80;;;3.90;;
16634;SDS011;8431;52.458;9.998;2023-03-15T07:51:27;6.22;;;3.63;;
16634;SDS011;8431;52.458;9.998;2023-03-15T07:53:54;4.60;;;3.10;;
16634;SDS011;8431;52.458;9.998;2023-03-15T07:56:22;3.30;;;3.00;;
16634;SDS011;8431;52.458;9.998;2023-03-15T07:58:49;7.85;;;3.15;;
16634;SDS011;8431;52.458;9.998;2023-03-15T08:01:16;8.13;;;3.60;;
16634;SDS011;8431;52.458;9.998;2023-03-15T08:03:43;4.50;;;3.20;;
16634;SDS011;8431;52.458;9.998;2023-03-15T08:06:10;4.13;;;3.38;;
16634;SDS011;8431;52.458;9.998;2023-03-15T08:08:40;5.38;;;2.90;;
16634;SDS011;8431;52.458;9.998;2023-03-15T08:11:07;4.10;;;2.72;;
16634;SDS011;8431;52.458;9.998;2023-03-15T08:13:35;4.22;;;2.65;;
16634;SDS011;8431;52.458;9.998;2023-03-15T08:16:03;6.07;;;2.53;;
16634;SDS011;8431;52.458;9.998;2023-03-15T08:18:30;4.25;;;2.40;;
16634;SDS011;8431;52.458;9.998;2023-03-15T08:20:57;4.95;;;2.75;;
16634;SDS011;8431;52.458;9.998;2023-03-15T08:23:24;3.90;;;2.35;;
16634;SDS011;8431;52.458;9.998;2023-03-15T08:25:51;4.78;;;2.75;;
16634;SDS011;8431;52.458;9.998;2023-03-15T08:28:18;6.35;;;2.72;;
16634;SDS011;8431;52.458;9.998;2023-03-15T08:30:46;3.83;;;3.42;;
16634;SDS011;8431;52.458;9.998;2023-03-15T08:33:13;5.78;;;2.67;;
16634;SDS011;8431;52.458;9.998;2023-03-15T08:35:40;6.10;;;2.60;;
16634;SDS011;8431;52.458;9.998;2023-03-15T08:38:07;4.03;;;2.30;;
16634;SDS011;8431;52.458;9.998;2023-03-15T08:40:34;2.97;;;2.40;;
16634;SDS011;8431;52.458;9.998;2023-03-15T08:43:02;3.45;;;2.20;;
16634;SDS011;8431;52.458;9.998;2023-03-15T08:45:29;4.80;;;2.60;;
16634;SDS011;8431;52.458;9.998;2023-03-15T08:48:00;6.05;;;2.45;;
16634;SDS011;8431;52.458;9.998;2023-03-15T08:50:27;5.88;;;1.98;;
16634;SDS011;8431;52.458;9.998;2023-03-15T08:52:55;5.97;;;2.38;;
16634;SDS011;8431;52.458;9.998;2023-03-15T08:55:22;5.10;;;2.20;;
16634;SDS011;8431;52.458;9.998;2023-03-15T08:57:49;4.82;;;2.42;;
16634;SDS011;8431;52.458;9.998;2023-03-15T09:00:16;7.47;;;2.35;;
16634;SDS011;8431;52.458;9.998;2023-03-15T09:02:46;6.55;;;2.30;;
16634;SDS011;8431;52.458;9.998;2023-03-15T09:05:15;8.30;;;2.58;;
16634;SDS011;8431;52.458;9.998;2023-03-15T09:07:43;5.22;;;2.28;;
16634;SDS011;8431;52.458;9.998;2023-03-15T09:10:10;3.72;;;2.20;;
16634;SDS011;8431;52.458;9.998;2023-03-15T09:12:39;7.75;;;2.40;;
16634;SDS011;8431;52.458;9.998;2023-03-15T09:15:07;3.55;;;2.00;;
16634;SDS011;8431;52.458;9.998;2023-03-15T09:17:35;4.35;;;2.20;;
16634;SDS011;8431;52.458;9.998;2023-03-15T09:20:02;7.93;;;1.98;;
16634;SDS011;8431;52.458;9.998;2023-03-15T09:22:34;2.97;;;1.77;;
16634;SDS011;8431;52.458;9.998;2023-03-15T09:25:01;6.97;;;2.00;;
16634;SDS011;8431;52.458;9.998;2023-03-15T09:27:29;5.13;;;1.90;;
16634;SDS011;8431;52.458;9.998;2023-03-15T09:29:59;6.13;;;1.88;;
16634;SDS011;8431;52.458;9.998;2023-03-15T09:32:26;2.42;;;1.38;;
16634;SDS011;8431;52.458;9.998;2023-03-15T09:34:53;4.35;;;1.63;;
16634;SDS011;8431;52.458;9.998;2023-03-15T09:37:20;3.83;;;1.50;;
16634;SDS011;8431;52.458;9.998;2023-03-15T09:39:49;6.43;;;1.98;;
16634;SDS011;8431;52.458;9.998;2023-03-15T09:42:17;8.05;;;2.03;;
16634;SDS011;8431;52.458;9.998;2023-03-15T09:44:58;7.13;;;1.73;;
16634;SDS011;8431;52.458;9.998;2023-03-15T09:47:35;7.97;;;2.67;;
16634;SDS011;8431;52.458;9.998;2023-03-15T09:50:11;6.30;;;2.00;;
16634;SDS011;8431;52.458;9.998;2023-03-15T09:52:47;4.65;;;2.00;;
16634;SDS011;8431;52.458;9.998;2023-03-15T09:55:19;6.20;;;1.80;;
16634;SDS011;8431;52.458;9.998;2023-03-15T09:57:49;5.15;;;2.00;;
16634;SDS011;8431;52.458;9.998;2023-03-15T10:00:21;5.88;;;1.80;;
16634;SDS011;8431;52.458;9.998;2023-03-15T10:02:54;7.40;;;1.70;;
16634;SDS011;8431;52.458;9.998;2023-03-15T10:05:27;8.15;;;1.35;;
16634;SDS011;8431;52.458;9.998;2023-03-15T10:08:12;4.80;;;2.10;;
16634;SDS011;8431;52.458;9.998;2023-03-15T10:11:07;4.35;;;1.80;;
16634;SDS011;8431;52.458;9.998;2023-03-15T10:13:57;7.13;;;1.70;;
16634;SDS011;8431;52.458;9.998;2023-03-15T10:16:36;4.53;;;1.23;;
16634;SDS011;8431;52.458;9.998;2023-03-15T10:19:12;9.23;;;1.60;;
16634;SDS011;8431;52.458;9.998;2023-03-15T10:21:47;5.45;;;2.20;;
16634;SDS011;8431;52.458;9.998;2023-03-15T10:24:20;4.38;;;1.35;;
16634;SDS011;8431;52.458;9.998;2023-03-15T10:26:55;2.83;;;1.00;;
16634;SDS011;8431;52.458;9.998;2023-03-15T10:29:25;6.85;;;1.80;;
16634;SDS011;8431;52.458;9.998;2023-03-15T10:31:53;5.90;;;1.38;;
16634;SDS011;8431;52.458;9.998;2023-03-15T10:34:20;2.95;;;1.23;;
16634;SDS011;8431;52.458;9.998;2023-03-15T10:36:50;5.78;;;1.60;;
16634;SDS011;8431;52.458;9.998;2023-03-15T10:39:19;4.25;;;0.90;;
16634;SDS011;8431;52.458;9.998;2023-03-15T10:41:47;2.22;;;1.02;;
16634;SDS011;8431;52.458;9.998;2023-03-15T10:44:17;4.38;;;1.20;;
16634;SDS011;8431;52.458;9.998;2023-03-15T10:46:59;4.50;;;1.00;;
16634;SDS011;8431;52.458;9.998;2023-03-15T10:49:34;2.90;;;0.75;;
16634;SDS011;8431;52.458;9.998;2023-03-15T10:52:02;3.30;;;0.90;;
16634;SDS011;8431;52.458;9.998;2023-03-15T10:54:30;4.32;;;1.30;;
16634;SDS011;8431;52.458;9.998;2023-03-15T10:56:59;3.05;;;0.77;;
16634;SDS011;8431;52.458;9.998;2023-03-15T10:59:31;3.70;;;1.02;;
16634;SDS011;8431;52.458;9.998;2023-03-15T11:02:19;4.18;;;1.00;;
16634;SDS011;8431;52.458;9.998;2023-03-15T11:04:48;3.60;;;1.30;;
16634;SDS011;8431;52.458;9.998;2023-03-15T11:07:24;1.95;;;0.93;;
16634;SDS011;8431;52.458;9.998;2023-03-15T11:09:51;3.25;;;0.70;;
16634;SDS011;8431;52.458;9.998;2023-03-15T11:12:21;2.90;;;1.10;;
16634;SDS011;8431;52.458;9.998;2023-03-15T11:14:52;4.57;;;1.13;;
16634;SDS011;8431;52.458;9.998;2023-03-15T11:17:22;3.17;;;0.90;;
16634;SDS011;8431;52.458;9.998;2023-03-15T11:19:53;4.53;;;1.20;;
16634;SDS011;8431;52.458;9.998;2023-03-15T11:22:22;3.35;;;1.30;;
16634;SDS011;8431;52.458;9.998;2023-03-15T11:24:49;3.30;;;1.08;;
16634;SDS011;8431;52.458;9.998;2023-03-15T11:27:18;2.85;;;1.13;;
16634;SDS011;8431;52.458;9.998;2023-03-15T11:29:50;3.15;;;1.17;;
16634;SDS011;8431;52.458;9.998;2023-03-15T11:32:21;3.55;;;1.40;;
16634;SDS011;8431;52.458;9.998;2023-03-15T11:34:53;2.75;;;1.00;;
16634;SDS011;8431;52.458;9.998;2023-03-15T11:37:25;3.25;;;0.98;;
16634;SDS011;8431;52.458;9.998;2023-03-15T11:39:59;3.20;;;1.10;;
16634;SDS011;8431;52.458;9.998;2023-03-15T11:42:29;1.17;;;0.60;;
16634;SDS011;8431;52.458;9.998;2023-03-15T11:45:03;3.75;;;0.98;;
16634;SDS011;8431;52.458;9.998;2023-03-15T11:47:43;5.00;;;1.13;;
16634;SDS011;8431;52.458;9.998;2023-03-15T11:50:18;2.72;;;1.08;;
16634;SDS011;8431;52.458;9.998;2023-03-15T11:52:49;2.67;;;1.10;;
16634;SDS011;8431;52.458;9.998;2023-03-15T11:55:18;2.65;;;1.02;;
16634;SDS011;8431;52.458;9.998;2023-03-15T11:57:49;2.47;;;0.80;;
16634;SDS011;8431;52.458;9.998;2023-03-15T12:03:27;3.72;;;1.17;;
16634;SDS011;8431;52.458;9.998;2023-03-15T12:06:11;1.95;;;1.05;;
16634;SDS011;8431;52.458;9.998;2023-03-15T12:08:54;2.20;;;0.82;;
16634;SDS011;8431;52.458;9.998;2023-03-15T12:11:36;3.85;;;1.30;;
16634;SDS011;8431;52.458;9.998;2023-03-15T12:14:05;5.47;;;1.00;;
16634;SDS011;8431;52.458;9.998;2023-03-15T12:16:48;4.20;;;1.20;;
16634;SDS011;8431;52.458;9.998;2023-03-15T12:19:15;2.60;;;1.20;;
16634;SDS011;8431;52.458;9.998;2023-03-15T12:21:44;2.25;;;1.02;;
16634;SDS011;8431;52.458;9.998;2023-03-15T12:24:19;2.90;;;1.10;;
16634;SDS011;8431;52.458;9.998;2023-03-15T12:26:49;4.68;;;1.20;;
16634;SDS011;8431;52.458;9.998;2023-03-15T12:29:24;4.38;;;1.17;;
16634;SDS011;8431;52.458;9.998;2023-03-15T12:31:55;5.85;;;1.42;;
16634;SDS011;8431;52.458;9.998;2023-03-15T12:34:33;0.95;;;0.70;;
16634;SDS011;8431;52.458;9.998;2023-03-15T12:37:08;2.33;;;0.90;;
16634;SDS011;8431;52.458;9.998;2023-03-15T12:39:41;1.83;;;0.95;;
16634;SDS011;8431;52.458;9.998;2023-03-15T12:45:32;4.32;;;1.50;;
16634;SDS011;8431;52.458;9.998;2023-03-15T12:51:41;4.20;;;1.00;;
16634;SDS011;8431;52.458;9.998;2023-03-15T12:54:24;3.25;;;1.17;;
16634;SDS011;8431;52.458;9.998;2023-03-15T12:56:58;1.45;;;0.95;;
16634;SDS011;8431;52.458;9.998;2023-03-15T12:59:46;1.50;;;1.08;;
16634;SDS011;8431;52.458;9.998;2023-03-15T13:02:29;4.72;;;1.40;;
16634;SDS011;8431;52.458;9.998;2023-03-15T13:08:22;0.98;;;0.98;;
16634;SDS011;8431;52.458;9.998;2023-03-15T13:11:21;1.58;;;1.23;;
16634;SDS011;8431;52.458;9.998;2023-03-15T13:14:00;1.20;;;1.10;;
16634;SDS011;8431;52.458;9.998;2023-03-15T13:16:40;1.20;;;0.50;;
16634;SDS011;8431;52.458;9.998;2023-03-15T13:19:24;2.10;;;1.05;;
16634;SDS011;8431;52.458;9.998;2023-03-15T13:22:08;2.50;;;0.80;;
16634;SDS011;8431;52.458;9.998;2023-03-15T13:24:43;2.05;;;0.82;;
16634;SDS011;8431;52.458;9.998;2023-03-15T13:27:33;1.48;;;0.75;;
16634;SDS011;8431;52.458;9.998;2023-03-15T13:33:11;1.80;;;0.73;;
16634;SDS011;8431;52.458;9.998;2023-03-15T13:35:46;0.77;;;0.20;;
16634;SDS011;8431;52.458;9.998;2023-03-15T13:44:36;1.00;;;0.77;;
16634;SDS011;8431;52.458;9.998;2023-03-15T13:47:25;2.50;;;1.05;;
16634;SDS011;8431;52.458;9.998;2023-03-15T13:50:05;1.42;;;0.65;;
16634;SDS011;8431;52.458;9.998;2023-03-15T13:55:35;2.58;;;0.90;;
16634;SDS011;8431;52.458;9.998;2023-03-15T13:58:18;2.67;;;0.55;;
16634;SDS011;8431;52.458;9.998;2023-03-15T14:01:00;1.00;;;0.52;;
16634;SDS011;8431;52.458;9.998;2023-03-15T14:03:53;1.13;;;1.02;;
16634;SDS011;8431;52.458;9.998;2023-03-15T14:06:46;2.90;;;1.08;;
16634;SDS011;8431;52.458;9.998;2023-03-15T14:10:08;1.75;;;0.75;;
16634;SDS011;8431;52.458;9.998;2023-03-15T14:15:57;2.63;;;0.70;;
16634;SDS011;8431;52.458;9.998;2023-03-15T14:18:40;3.78;;;0.90;;
16634;SDS011;8431;52.458;9.998;2023-03-15T14:21:50;2.28;;;0.50;;
16634;SDS011;8431;52.458;9.998;2023-03-15T14:24:31;3.25;;;0.60;;
16634;SDS011;8431;52.458;9.998;2023-03-15T14:27:34;2.20;;;0.40;;
16634;SDS011;8431;52.458;9.998;2023-03-15T14:30:32;0.63;;;0.40;;
16634;SDS011;8431;52.458;9.998;2023-03-15T14:36:38;2.70;;;1.00;;
16634;SDS011;8431;52.458;9.998;2023-03-15T14:39:28;0.40;;;0.40;;
16634;SDS011;8431;52.458;9.998;2023-03-15T14:42:19;2.05;;;0.60;;
16634;SDS011;8431;52.458;9.998;2023-03-15T14:45:11;3.05;;;0.50;;
16634;SDS011;8431;52.458;9.998;2023-03-15T14:47:58;1.58;;;0.68;;
16634;SDS011;8431;52.458;9.998;2023-03-15T14:50:38;1.58;;;0.57;;
16634;SDS011;8431;52.458;9.998;2023-03-15T15:01:50;3.10;;;0.80;;
16634;SDS011;8431;52.458;9.998;2023-03-15T15:04:37;1.08;;;0.50;;
16634;SDS011;8431;52.458;9.998;2023-03-15T15:08:03;3.47;;;0.70;;
16634;SDS011;8431;52.458;9.998;2023-03-15T15:10:51;3.85;;;0.73;;
16634;SDS011;8431;52.458;9.998;2023-03-15T15:14:11;1.40;;;0.63;;
16634;SDS011;8431;52.458;9.998;2023-03-15T15:17:13;1.88;;;0.55;;
16634;SDS011;8431;52.458;9.998;2023-03-15T15:20:13;2.83;;;0.85;;
16634;SDS011;8431;52.458;9.998;2023-03-15T15:23:13;2.08;;;0.55;;
16634;SDS011;8431;52.458;9.998;2023-03-15T15:26:27;1.83;;;0.85;;
16634;SDS011;8431;52.458;9.998;2023-03-15T15:32:46;2.53;;;0.70;;
16634;SDS011;8431;52.458;9.998;2023-03-15T15:35:19;1.83;;;0.77;;
16634;SDS011;8431;52.458;9.998;2023-03-15T15:38:10;2.58;;;0.77;;
16634;SDS011;8431;52.458;9.998;2023-03-15T15:41:32;3.03;;;0.70;;
16634;SDS011;8431;52.458;9.998;2023-03-15T15:44:30;3.08;;;0.85;;
16634;SDS011;8431;52.458;9.998;2023-03-15T15:47:49;3.28;;;0.73;;
16634;SDS011;8431;52.458;9.998;2023-03-15T15:50:47;0.85;;;0.60;;
16634;SDS011;8431;52.458;9.998;2023-03-15T15:53:48;2.67;;;0.80;;
16634;SDS011;8431;52.458;9.998;2023-03-15T16:00:07;4.82;;;0.80;;
16634;SDS011;8431;52.458;9.998;2023-03-15T16:02:41;2.78;;;1.38;;
16634;SDS011;8431;52.458;9.998;2023-03-15T16:05:42;4.25;;;1.30;;
16634;SDS011;8431;52.458;9.998;2023-03-15T16:08:48;4.57;;;1.10;;
16634;SDS011;8431;52.458;9.998;2023-03-15T16:11:25;3.13;;;1.05;;
16634;SDS011;8431;52.458;9.998;2023-03-15T16:22:21;2.72;;;1.02;;
16634;SDS011;8431;52.458;9.998;2023-03-15T16:27:44;2.75;;;0.95;;
16634;SDS011;8431;52.458;9.998;2023-03-15T16:30:18;4.35;;;1.38;;
16634;SDS011;8431;52.458;9.998;2023-03-15T16:33:01;2.08;;;0.70;;